Lineboro, Maryland
Current Conditions -  °F | °C
As of 4:30 AM on Thursday 27 Nov 2014 (Local Time) from KDMW Reporting Station
Scattered Clouds Scattered Clouds  
Wind Chill:   Ceiling: Unl
Heat Index:   Visibility: 7mi
Dew Point: -1°   Wind: 3mph
Humidity: 93%   Direction: 260°W
Pressure: 29.97"   Gusts: NA
Location:  39.72°N, 76.84°W
Report Text: KDMW 270930Z AUTO 26003KT 7SM SCT060 SCT075 SCT090 00/M01 A2997 RMK AO2
Loading
Personal Weather Stations






























Interactive Weather Map New forecast layout! Learn more

10-Day Weather Forecast

Advertisements
Track Severe Weather on mobile